createdAt,value
2017-05-14T00:00:38.978Z,1008.05
2017-05-14T00:01:40.402Z,1008.04
2017-05-14T00:02:41.826Z,1008.05
2017-05-14T00:03:43.257Z,1008.07
2017-05-14T00:04:44.693Z,1008.06
2017-05-14T00:05:46.120Z,1008.07
2017-05-14T00:06:47.547Z,1008.08
2017-05-14T00:07:48.988Z,1008.05
2017-05-14T00:08:50.419Z,1008.08
2017-05-14T00:09:51.851Z,1008.09
2017-05-14T00:10:53.301Z,1008.08
2017-05-14T00:11:54.733Z,1008.05
2017-05-14T00:12:56.162Z,1008.06
2017-05-14T00:13:57.592Z,1008.07
2017-05-14T00:14:59.014Z,1008.10
2017-05-14T00:16:00.447Z,1008.07
2017-05-14T00:17:01.895Z,1008.09
2017-05-14T00:18:03.314Z,1008.09
2017-05-14T00:19:04.743Z,1008.08
2017-05-14T00:20:06.175Z,1008.10
2017-05-14T00:21:07.610Z,1008.08
2017-05-14T00:22:09.095Z,1008.11
2017-05-14T00:23:10.526Z,1008.09
2017-05-14T00:24:11.955Z,1008.10
2017-05-14T00:25:13.383Z,1008.10
2017-05-14T00:26:14.814Z,1008.12
2017-05-14T00:27:16.243Z,1008.11
2017-05-14T00:28:17.668Z,1008.13
2017-05-14T00:29:19.104Z,1008.08
2017-05-14T00:30:20.603Z,1008.14
2017-05-14T00:31:22.047Z,1008.12
2017-05-14T00:32:23.471Z,1008.12
2017-05-14T00:33:24.899Z,1008.10
2017-05-14T00:34:26.326Z,1008.12
2017-05-14T00:35:27.761Z,1008.10
2017-05-14T00:36:29.197Z,1008.08
2017-05-14T00:37:30.628Z,1008.07
2017-05-14T00:38:32.062Z,1008.08
2017-05-14T00:39:33.486Z,1008.09
2017-05-14T00:40:34.932Z,1008.13
2017-05-14T00:41:36.369Z,1008.10
2017-05-14T00:42:37.803Z,1008.09
2017-05-14T00:43:39.228Z,1008.12
2017-05-14T00:44:40.659Z,1008.13
2017-05-14T00:45:42.092Z,1008.09
2017-05-14T00:46:43.525Z,1008.09
2017-05-14T00:47:44.949Z,1008.11
2017-05-14T00:48:46.380Z,1008.07
2017-05-14T00:49:47.805Z,1008.09
2017-05-14T00:50:49.226Z,1008.11
2017-05-14T00:51:50.660Z,1008.06
2017-05-14T00:52:52.096Z,1008.08
2017-05-14T00:53:53.532Z,1008.07
2017-05-14T00:54:54.960Z,1008.12
2017-05-14T00:55:56.388Z,1008.11
2017-05-14T00:56:57.817Z,1008.15
2017-05-14T00:57:59.252Z,1008.13
2017-05-14T00:59:00.686Z,1008.12
2017-05-14T01:00:02.119Z,1008.15
2017-05-14T01:01:03.548Z,1008.09
2017-05-14T01:02:04.975Z,1008.10
2017-05-14T01:03:06.403Z,1008.11
2017-05-14T01:04:07.831Z,1008.10
2017-05-14T01:05:09.264Z,1008.08
2017-05-14T01:06:10.694Z,1008.05
2017-05-14T01:07:12.122Z,1008.13
2017-05-14T01:08:14.135Z,1008.11
2017-05-14T01:09:15.565Z,1008.16
2017-05-14T01:10:17.001Z,1008.14
2017-05-14T01:11:19.231Z,1008.13
2017-05-14T01:12:20.427Z,1008.15
2017-05-14T01:13:22.643Z,1008.20
2017-05-14T01:14:24.071Z,1008.22
2017-05-14T01:15:25.502Z,1008.20
2017-05-14T01:16:26.941Z,1008.23
2017-05-14T01:17:28.367Z,1008.25
2017-05-14T01:18:29.803Z,1008.27
2017-05-14T01:19:31.233Z,1008.25
2017-05-14T01:20:32.663Z,1008.27
2017-05-14T01:21:34.089Z,1008.25
2017-05-14T01:22:35.523Z,1008.29
2017-05-14T01:23:36.947Z,1008.31
2017-05-14T01:24:38.379Z,1008.31
2017-05-14T01:25:39.807Z,1008.31
2017-05-14T01:26:41.235Z,1008.34
2017-05-14T01:27:42.673Z,1008.36
2017-05-14T01:28:44.098Z,1008.33
2017-05-14T01:29:45.530Z,1008.33
2017-05-14T01:30:46.967Z,1008.35
2017-05-14T01:31:48.394Z,1008.33
2017-05-14T01:32:49.818Z,1008.32
2017-05-14T01:33:51.246Z,1008.30
2017-05-14T01:34:52.669Z,1008.28
2017-05-14T01:35:54.093Z,1008.32
2017-05-14T01:36:55.525Z,1008.34
2017-05-14T01:37:56.953Z,1008.32
2017-05-14T01:38:58.386Z,1008.31
2017-05-14T01:39:59.820Z,1008.39
2017-05-14T01:41:01.247Z,1008.39
2017-05-14T01:42:02.680Z,1008.37
2017-05-14T01:43:04.110Z,1008.39
2017-05-14T01:44:05.539Z,1008.33
2017-05-14T01:45:07.018Z,1008.37
2017-05-14T01:46:08.446Z,1008.39
2017-05-14T01:47:09.876Z,1008.36
2017-05-14T01:48:11.316Z,1008.40
2017-05-14T01:49:12.744Z,1008.39
2017-05-14T01:50:14.167Z,1008.40
2017-05-14T01:51:15.600Z,1008.42
2017-05-14T01:52:17.040Z,1008.48
2017-05-14T01:53:18.464Z,1008.48
2017-05-14T01:54:19.901Z,1008.47
2017-05-14T01:55:21.332Z,1008.44
2017-05-14T01:56:22.765Z,1008.49
2017-05-14T01:57:24.187Z,1008.46
2017-05-14T01:58:25.624Z,1008.46
2017-05-14T01:59:27.053Z,1008.47
2017-05-14T02:00:28.486Z,1008.50
2017-05-14T02:01:29.913Z,1008.50
2017-05-14T02:02:31.386Z,1008.54
2017-05-14T02:03:32.777Z,1008.52
2017-05-14T02:04:34.202Z,1008.55
2017-05-14T02:05:35.633Z,1008.54
2017-05-14T02:06:37.070Z,1008.53
2017-05-14T02:07:38.496Z,1008.58
2017-05-14T02:08:39.919Z,1008.55
2017-05-14T02:09:41.352Z,1008.63
2017-05-14T02:10:42.784Z,1008.58
2017-05-14T02:11:44.219Z,1008.61
2017-05-14T02:12:45.643Z,1008.65
2017-05-14T02:13:47.075Z,1008.57
2017-05-14T02:14:48.501Z,1008.64
2017-05-14T02:15:49.933Z,1008.67
2017-05-14T02:16:51.360Z,1008.69
2017-05-14T02:17:52.779Z,1008.66
2017-05-14T02:18:54.205Z,1008.75
2017-05-14T02:19:55.634Z,1008.75
2017-05-14T02:20:57.064Z,1008.70
2017-05-14T02:21:58.495Z,1008.71
2017-05-14T02:22:59.920Z,1008.74
2017-05-14T02:24:01.354Z,1008.71
2017-05-14T02:25:02.777Z,1008.70
2017-05-14T02:26:04.213Z,1008.74
2017-05-14T02:27:05.640Z,1008.70
2017-05-14T02:28:07.082Z,1008.75
2017-05-14T02:29:08.507Z,1008.71
2017-05-14T02:30:09.942Z,1008.72
2017-05-14T02:31:11.368Z,1008.74
2017-05-14T02:32:12.798Z,1008.81
2017-05-14T02:33:14.860Z,1008.81
2017-05-14T02:34:16.288Z,1008.82
2017-05-14T02:35:17.718Z,1008.82
2017-05-14T02:36:19.171Z,1008.82
2017-05-14T02:37:20.603Z,1008.84
2017-05-14T02:38:22.027Z,1008.84
2017-05-14T02:39:23.452Z,1008.82
2017-05-14T02:40:24.969Z,1008.82
2017-05-14T02:41:26.403Z,1008.81
2017-05-14T02:42:27.832Z,1008.83
2017-05-14T02:43:29.251Z,1008.81
2017-05-14T02:44:30.752Z,1008.82
2017-05-14T02:45:32.176Z,1008.84
2017-05-14T02:46:33.598Z,1008.80
2017-05-14T02:47:35.029Z,1008.80
2017-05-14T02:48:36.505Z,1008.80
2017-05-14T02:49:37.934Z,1008.83
2017-05-14T02:50:39.365Z,1008.86
2017-05-14T02:51:41.725Z,1008.84
2017-05-14T02:52:43.169Z,1008.88
2017-05-14T02:53:44.705Z,1008.83
2017-05-14T02:54:46.129Z,1008.81
2017-05-14T02:55:48.348Z,1008.79
2017-05-14T02:56:49.776Z,1008.85
2017-05-14T02:57:51.208Z,1008.82
2017-05-14T02:58:52.635Z,1008.82
2017-05-14T02:59:54.063Z,1008.83
2017-05-14T03:00:55.492Z,1008.85
2017-05-14T03:01:56.918Z,1008.83
2017-05-14T03:02:58.342Z,1008.83
2017-05-14T03:03:59.776Z,1008.85
2017-05-14T03:05:02.767Z,1008.83
2017-05-14T03:06:03.406Z,1008.82
2017-05-14T03:07:04.832Z,1008.84
2017-05-14T03:08:06.262Z,1008.86
2017-05-14T03:09:07.687Z,1008.88
2017-05-14T03:10:09.108Z,1008.88
2017-05-14T03:11:10.538Z,1008.87
2017-05-14T03:12:11.966Z,1008.88
2017-05-14T03:13:13.394Z,1008.85
2017-05-14T03:14:14.826Z,1008.87
2017-05-14T03:15:16.258Z,1008.89
2017-05-14T03:16:17.692Z,1008.92
2017-05-14T03:17:19.130Z,1008.91
2017-05-14T03:18:20.553Z,1008.88
2017-05-14T03:19:21.981Z,1008.87
2017-05-14T03:20:23.412Z,1008.92
2017-05-14T03:21:24.839Z,1008.91
2017-05-14T03:22:26.273Z,1008.93
2017-05-14T03:23:27.697Z,1008.94
2017-05-14T03:24:29.126Z,1008.92
2017-05-14T03:25:30.555Z,1008.93
2017-05-14T03:26:31.983Z,1008.95
2017-05-14T03:27:33.421Z,1008.92
2017-05-14T03:28:34.845Z,1008.95
2017-05-14T03:29:36.269Z,1008.90
2017-05-14T03:30:37.700Z,1008.95
2017-05-14T03:31:39.127Z,1008.93
2017-05-14T03:32:40.616Z,1008.93
2017-05-14T03:33:42.778Z,1008.93
2017-05-14T03:34:43.413Z,1008.93
2017-05-14T03:35:44.864Z,1008.98
2017-05-14T03:36:46.297Z,1009.00
2017-05-14T03:37:47.729Z,1008.97
2017-05-14T03:38:49.252Z,1008.98
2017-05-14T03:39:50.694Z,1008.99
2017-05-14T03:40:52.122Z,1008.97
2017-05-14T03:41:53.551Z,1009.04
2017-05-14T03:42:54.982Z,1008.99
2017-05-14T03:43:56.412Z,1009.03
2017-05-14T03:44:57.844Z,1009.03
2017-05-14T03:45:59.272Z,1009.05
2017-05-14T03:47:00.701Z,1009.07
2017-05-14T03:48:02.129Z,1009.08
2017-05-14T03:49:03.562Z,1009.08
2017-05-14T03:50:05.091Z,1009.12
2017-05-14T03:51:06.523Z,1009.10
2017-05-14T03:52:07.949Z,1009.10
2017-05-14T03:53:09.380Z,1009.11
2017-05-14T03:54:10.813Z,1009.10
2017-05-14T03:55:12.237Z,1009.07
2017-05-14T03:56:13.674Z,1009.11
2017-05-14T03:57:15.191Z,1009.07
2017-05-14T03:58:16.646Z,1009.10
2017-05-14T03:59:18.072Z,1009.09
2017-05-14T04:00:19.508Z,1009.08
2017-05-14T04:01:20.957Z,1009.12
2017-05-14T04:02:22.461Z,1009.11
2017-05-14T04:03:24.472Z,1009.11
2017-05-14T04:04:25.896Z,1009.19
2017-05-14T04:05:27.326Z,1009.19
2017-05-14T04:06:28.760Z,1009.16
2017-05-14T04:07:30.195Z,1009.15
2017-05-14T04:08:31.625Z,1009.19
2017-05-14T04:09:33.055Z,1009.19
2017-05-14T04:10:34.489Z,1009.22
2017-05-14T04:11:35.920Z,1009.23
2017-05-14T04:12:37.352Z,1009.19
2017-05-14T04:13:38.782Z,1009.25
2017-05-14T04:14:40.210Z,1009.23
2017-05-14T04:15:41.645Z,1009.21
2017-05-14T04:16:43.076Z,1009.21
2017-05-14T04:17:44.499Z,1009.24
2017-05-14T04:18:45.931Z,1009.23
2017-05-14T04:19:47.369Z,1009.22
2017-05-14T04:20:48.793Z,1009.23
2017-05-14T04:21:50.224Z,1009.28
2017-05-14T04:22:51.655Z,1009.27
2017-05-14T04:23:53.571Z,1009.28
2017-05-14T04:24:54.995Z,1009.28
2017-05-14T04:25:56.426Z,1009.27
2017-05-14T04:26:57.859Z,1009.28
2017-05-14T04:27:59.291Z,1009.28
2017-05-14T04:29:00.721Z,1009.25
2017-05-14T04:30:02.154Z,1009.27
2017-05-14T04:31:03.587Z,1009.25
2017-05-14T04:32:05.011Z,1009.27
2017-05-14T04:33:06.444Z,1009.26
2017-05-14T04:34:07.873Z,1009.26
2017-05-14T04:35:11.043Z,1009.27
2017-05-14T04:36:12.474Z,1009.27
2017-05-14T04:37:13.902Z,1009.26
2017-05-14T04:38:15.333Z,1009.31
2017-05-14T04:39:16.749Z,1009.29
2017-05-14T04:40:18.182Z,1009.29
2017-05-14T04:41:20.211Z,1009.26
2017-05-14T04:42:21.641Z,1009.31
2017-05-14T04:43:23.070Z,1009.30
2017-05-14T04:44:24.503Z,1009.30
2017-05-14T04:45:25.934Z,1009.29
2017-05-14T04:46:27.365Z,1009.30
2017-05-14T04:47:28.803Z,1009.33
2017-05-14T04:48:30.237Z,1009.34
2017-05-14T04:49:31.665Z,1009.32
2017-05-14T04:50:33.094Z,1009.30
2017-05-14T04:51:34.520Z,1009.28
2017-05-14T04:52:35.952Z,1009.28
2017-05-14T04:53:37.381Z,1009.32
2017-05-14T04:54:38.854Z,1009.30
2017-05-14T04:55:40.244Z,1009.32
2017-05-14T04:56:41.675Z,1009.29
2017-05-14T04:57:43.107Z,1009.33
2017-05-14T04:58:44.545Z,1009.33
2017-05-14T04:59:45.973Z,1009.34
2017-05-14T05:00:47.408Z,1009.34
2017-05-14T05:01:48.834Z,1009.33
2017-05-14T05:02:50.264Z,1009.35
2017-05-14T05:03:51.695Z,1009.36
2017-05-14T05:04:53.124Z,1009.42
2017-05-14T05:05:54.548Z,1009.38
2017-05-14T05:06:55.977Z,1009.40
2017-05-14T05:07:57.411Z,1009.44
2017-05-14T05:08:58.843Z,1009.40
2017-05-14T05:10:00.271Z,1009.42
2017-05-14T05:11:01.700Z,1009.43
2017-05-14T05:12:03.133Z,1009.46
2017-05-14T05:13:04.563Z,1009.43
2017-05-14T05:14:05.994Z,1009.46
2017-05-14T05:15:07.429Z,1009.46
2017-05-14T05:16:08.864Z,1009.51
2017-05-14T05:17:10.297Z,1009.48
2017-05-14T05:18:11.721Z,1009.52
2017-05-14T05:19:13.160Z,1009.49
2017-05-14T05:20:15.493Z,1009.49
2017-05-14T05:21:16.925Z,1009.50
2017-05-14T05:22:18.363Z,1009.51
2017-05-14T05:23:19.808Z,1009.55
2017-05-14T05:24:21.236Z,1009.55
2017-05-14T05:25:22.670Z,1009.53
2017-05-14T05:26:24.105Z,1009.55
2017-05-14T05:27:25.533Z,1009.53
2017-05-14T05:28:26.973Z,1009.55
2017-05-14T05:29:28.403Z,1009.53
2017-05-14T05:30:29.840Z,1009.54
2017-05-14T05:31:31.933Z,1009.53
2017-05-14T05:32:33.364Z,1009.54
2017-05-14T05:33:34.906Z,1009.58
2017-05-14T05:34:37.004Z,1009.56
2017-05-14T05:35:38.425Z,1009.59
2017-05-14T05:36:39.869Z,1009.54
2017-05-14T05:37:41.301Z,1009.58
2017-05-14T05:38:42.731Z,1009.58
2017-05-14T05:39:44.165Z,1009.60
2017-05-14T05:40:45.593Z,1009.62
2017-05-14T05:41:47.027Z,1009.68
2017-05-14T05:42:48.462Z,1009.68
2017-05-14T05:43:49.889Z,1009.72
2017-05-14T05:44:51.317Z,1009.76
2017-05-14T05:45:52.751Z,1009.76
2017-05-14T05:46:54.183Z,1009.80
2017-05-14T05:47:55.614Z,1009.80
2017-05-14T05:48:57.048Z,1009.81
2017-05-14T05:49:58.475Z,1009.83
2017-05-14T05:50:59.916Z,1009.83
2017-05-14T05:52:01.346Z,1009.84
2017-05-14T05:53:02.781Z,1009.82
2017-05-14T05:54:04.214Z,1009.86
2017-05-14T05:55:05.656Z,1009.86
2017-05-14T05:56:07.093Z,1009.81
2017-05-14T05:57:08.518Z,1009.83
2017-05-14T05:58:09.958Z,1009.81
2017-05-14T05:59:11.384Z,1009.83
2017-05-14T06:00:12.816Z,1009.83
2017-05-14T06:01:14.250Z,1009.80
2017-05-14T06:02:15.687Z,1009.78
2017-05-14T06:03:17.114Z,1009.76
2017-05-14T06:04:18.540Z,1009.88
2017-05-14T06:05:19.972Z,1009.86
2017-05-14T06:06:21.404Z,1009.82
2017-05-14T06:07:22.837Z,1009.83
2017-05-14T06:08:24.261Z,1009.76
2017-05-14T06:09:25.694Z,1009.74
2017-05-14T06:10:27.127Z,1009.76
2017-05-14T06:11:28.563Z,1009.72
2017-05-14T06:12:29.992Z,1009.74
2017-05-14T06:13:31.425Z,1009.81
2017-05-14T06:14:32.855Z,1009.76
2017-05-14T06:15:34.279Z,1009.79
2017-05-14T06:16:35.713Z,1009.84
2017-05-14T06:17:37.153Z,1009.84
2017-05-14T06:18:38.582Z,1009.86
2017-05-14T06:19:40.013Z,1009.90
2017-05-14T06:20:41.454Z,1009.92
2017-05-14T06:21:42.886Z,1009.97
2017-05-14T06:22:44.340Z,1009.95
2017-05-14T06:23:45.764Z,1009.98
2017-05-14T06:24:47.195Z,1010.01
2017-05-14T06:25:48.632Z,1010.04
2017-05-14T06:26:50.061Z,1010.02
2017-05-14T06:27:51.497Z,1009.99
2017-05-14T06:28:52.920Z,1010.01
2017-05-14T06:29:54.363Z,1010.01
2017-05-14T06:30:55.790Z,1010.04
2017-05-14T06:31:57.222Z,1010.04
2017-05-14T06:32:58.653Z,1010.08
2017-05-14T06:34:00.086Z,1010.03
2017-05-14T06:35:01.517Z,1010.02
2017-05-14T06:36:02.972Z,1010.06
2017-05-14T06:37:04.407Z,1010.11
2017-05-14T06:38:05.840Z,1010.12
2017-05-14T06:39:07.278Z,1010.13
2017-05-14T06:40:08.747Z,1010.15
2017-05-14T06:41:11.089Z,1010.15
2017-05-14T06:42:12.582Z,1010.11
2017-05-14T06:43:14.011Z,1010.15
2017-05-14T06:44:15.449Z,1010.14
2017-05-14T06:45:16.885Z,1010.15
2017-05-14T06:46:19.254Z,1010.15
2017-05-14T06:47:20.798Z,1010.16
2017-05-14T06:48:22.230Z,1010.20
2017-05-14T06:49:23.665Z,1010.23
2017-05-14T06:50:25.131Z,1010.23
2017-05-14T06:51:26.563Z,1010.29
2017-05-14T06:52:28.003Z,1010.25
2017-05-14T06:53:29.446Z,1010.30
2017-05-14T06:54:30.892Z,1010.31
2017-05-14T06:55:32.325Z,1010.31
2017-05-14T06:56:33.752Z,1010.35
2017-05-14T06:57:35.190Z,1010.37
2017-05-14T06:58:36.622Z,1010.36
2017-05-14T06:59:38.057Z,1010.40
2017-05-14T07:00:39.513Z,1010.38
2017-05-14T07:01:40.984Z,1010.36
2017-05-14T07:02:42.461Z,1010.41
2017-05-14T07:03:44.670Z,1010.41
2017-05-14T07:04:46.108Z,1010.41
2017-05-14T07:05:47.537Z,1010.45
2017-05-14T07:06:48.967Z,1010.46
2017-05-14T07:07:50.397Z,1010.50
2017-05-14T07:08:52.709Z,1010.53
2017-05-14T07:09:54.145Z,1010.55
2017-05-14T07:10:55.584Z,1010.56
2017-05-14T07:11:57.023Z,1010.56
2017-05-14T07:12:58.458Z,1010.57
2017-05-14T07:13:59.890Z,1010.58
2017-05-14T07:15:01.324Z,1010.61
2017-05-14T07:16:02.758Z,1010.61
2017-05-14T07:17:04.198Z,1010.59
2017-05-14T07:18:05.632Z,1010.62
2017-05-14T07:19:07.071Z,1010.58
2017-05-14T07:20:08.512Z,1010.57
2017-05-14T07:21:09.946Z,1010.56
2017-05-14T07:22:11.399Z,1010.55
2017-05-14T07:23:12.833Z,1010.54
2017-05-14T07:24:14.275Z,1010.52
2017-05-14T07:25:15.711Z,1010.48
2017-05-14T07:26:17.145Z,1010.51
2017-05-14T07:27:20.222Z,1010.48
2017-05-14T07:28:21.657Z,1010.53
2017-05-14T07:29:23.097Z,1010.51
2017-05-14T07:30:24.528Z,1010.48
2017-05-14T07:31:25.959Z,1010.50
2017-05-14T07:32:27.390Z,1010.53
2017-05-14T07:33:28.822Z,1010.54
2017-05-14T07:34:30.263Z,1010.57
2017-05-14T07:35:31.692Z,1010.59
2017-05-14T07:36:33.130Z,1010.67
2017-05-14T07:37:34.568Z,1010.64
2017-05-14T07:38:36.003Z,1010.62
2017-05-14T07:39:37.434Z,1010.58
2017-05-14T07:40:38.869Z,1010.59
2017-05-14T07:41:40.299Z,1010.59
2017-05-14T07:42:41.735Z,1010.58
2017-05-14T07:43:43.168Z,1010.56
2017-05-14T07:44:44.612Z,1010.60
2017-05-14T07:45:46.042Z,1010.56
2017-05-14T07:46:47.477Z,1010.55
2017-05-14T07:47:48.912Z,1010.62
2017-05-14T07:48:50.349Z,1010.61
2017-05-14T07:49:51.789Z,1010.61
2017-05-14T07:50:53.259Z,1010.66
2017-05-14T07:51:54.739Z,1010.58
2017-05-14T07:52:56.165Z,1010.60
2017-05-14T07:53:57.601Z,1010.63
2017-05-14T07:54:59.036Z,1010.56
2017-05-14T07:56:00.513Z,1010.64
2017-05-14T07:57:01.951Z,1010.59
2017-05-14T07:58:03.384Z,1010.59
2017-05-14T07:59:04.818Z,1010.62
2017-05-14T08:00:06.258Z,1010.68
2017-05-14T08:01:07.692Z,1010.68
2017-05-14T08:02:09.175Z,1010.70
2017-05-14T08:03:10.618Z,1010.70
2017-05-14T08:04:12.048Z,1010.71
2017-05-14T08:05:13.483Z,1010.69
2017-05-14T08:06:14.922Z,1010.66
2017-05-14T08:07:16.356Z,1010.65
2017-05-14T08:08:17.798Z,1010.68
2017-05-14T08:09:19.274Z,1010.67
2017-05-14T08:10:20.717Z,1010.66
2017-05-14T08:11:22.169Z,1010.64
2017-05-14T08:12:23.606Z,1010.65
2017-05-14T08:13:25.061Z,1010.65
2017-05-14T08:14:26.493Z,1010.70
2017-05-14T08:15:27.927Z,1010.70
2017-05-14T08:16:29.364Z,1010.67
2017-05-14T08:17:30.801Z,1010.66
2017-05-14T08:18:32.238Z,1010.72
2017-05-14T08:19:33.674Z,1010.75
2017-05-14T08:20:35.168Z,1010.68
2017-05-14T08:21:36.608Z,1010.78
2017-05-14T08:22:38.042Z,1010.75
2017-05-14T08:23:39.474Z,1010.74
2017-05-14T08:24:40.917Z,1010.81
2017-05-14T08:25:42.353Z,1010.80
2017-05-14T08:26:43.791Z,1010.68
2017-05-14T08:27:45.229Z,1010.68
2017-05-14T08:28:46.676Z,1010.71
2017-05-14T08:29:48.117Z,1010.71
2017-05-14T08:30:49.554Z,1010.67
2017-05-14T08:31:50.997Z,1010.68
2017-05-14T08:32:52.487Z,1010.73
2017-05-14T08:33:53.922Z,1010.71
2017-05-14T08:34:55.357Z,1010.73
2017-05-14T08:35:57.556Z,1010.71
2017-05-14T08:36:58.982Z,1010.74
2017-05-14T08:38:00.426Z,1010.73
2017-05-14T08:39:01.862Z,1010.77
2017-05-14T08:40:03.299Z,1010.77
2017-05-14T08:41:04.733Z,1010.73
2017-05-14T08:42:06.177Z,1010.75
2017-05-14T08:43:07.620Z,1010.74
2017-05-14T08:44:09.061Z,1010.82
2017-05-14T08:45:10.505Z,1010.82
2017-05-14T08:46:11.936Z,1010.79
2017-05-14T08:47:13.374Z,1010.86
2017-05-14T08:48:14.821Z,1010.87
2017-05-14T08:49:16.255Z,1010.91
2017-05-14T08:50:17.690Z,1010.90
2017-05-14T08:51:19.129Z,1010.94
2017-05-14T08:52:20.569Z,1011.00
2017-05-14T08:53:22.008Z,1010.98
2017-05-14T08:54:23.454Z,1010.94
2017-05-14T08:55:24.892Z,1010.93
2017-05-14T08:56:26.333Z,1010.92
2017-05-14T08:57:27.763Z,1010.87
2017-05-14T08:58:29.206Z,1010.93
2017-05-14T08:59:30.636Z,1010.89
2017-05-14T09:00:32.072Z,1010.96
2017-05-14T09:01:33.510Z,1010.98
2017-05-14T09:02:34.949Z,1011.02
2017-05-14T09:03:36.383Z,1011.05
2017-05-14T09:04:37.814Z,1011.16
2017-05-14T09:05:39.259Z,1011.19
2017-05-14T09:06:41.593Z,1011.13
2017-05-14T09:07:43.034Z,1011.14
2017-05-14T09:08:44.470Z,1011.13
2017-05-14T09:09:45.902Z,1011.18
2017-05-14T09:10:47.344Z,1011.16
2017-05-14T09:11:48.777Z,1011.16
2017-05-14T09:12:50.211Z,1011.21
2017-05-14T09:13:51.654Z,1011.19
2017-05-14T09:14:53.087Z,1011.16
2017-05-14T09:15:54.524Z,1011.17
2017-05-14T09:16:55.967Z,1011.17
2017-05-14T09:17:57.407Z,1011.22
2017-05-14T09:18:58.845Z,1011.19
2017-05-14T09:20:01.102Z,1011.16
2017-05-14T09:21:02.536Z,1011.15
2017-05-14T09:22:03.975Z,1011.17
2017-05-14T09:23:05.418Z,1011.16
2017-05-14T09:24:06.862Z,1011.19
2017-05-14T09:25:08.297Z,1011.20
2017-05-14T09:26:09.734Z,1011.24
2017-05-14T09:27:12.080Z,1011.23
2017-05-14T09:28:14.133Z,1011.28
2017-05-14T09:29:15.574Z,1011.30
2017-05-14T09:30:17.011Z,1011.28
2017-05-14T09:31:18.449Z,1011.25
2017-05-14T09:32:19.899Z,1011.29
2017-05-14T09:33:21.381Z,1011.26
2017-05-14T09:34:22.778Z,1011.28
2017-05-14T09:35:24.214Z,1011.25
2017-05-14T09:36:25.647Z,1011.34
2017-05-14T09:37:27.909Z,1011.29
2017-05-14T09:38:29.862Z,1011.26
2017-05-14T09:39:31.304Z,1011.32
2017-05-14T09:40:32.742Z,1011.23
2017-05-14T09:41:34.175Z,1011.28
2017-05-14T09:42:35.613Z,1011.27
2017-05-14T09:43:37.056Z,1011.32
2017-05-14T09:44:38.853Z,1011.31
2017-05-14T09:45:40.295Z,1011.32
2017-05-14T09:46:41.731Z,1011.37
2017-05-14T09:47:43.169Z,1011.35
2017-05-14T09:48:44.604Z,1011.38
2017-05-14T09:49:46.043Z,1011.41
2017-05-14T09:50:47.474Z,1011.40
2017-05-14T09:51:48.919Z,1011.44
2017-05-14T09:52:50.357Z,1011.38
2017-05-14T09:53:51.797Z,1011.46
2017-05-14T09:54:53.223Z,1011.51
2017-05-14T09:55:55.529Z,1011.46
2017-05-14T09:56:56.964Z,1011.53
2017-05-14T09:57:58.410Z,1011.51
2017-05-14T09:58:59.852Z,1011.50
2017-05-14T10:00:01.296Z,1011.51
2017-05-14T10:01:02.731Z,1011.50
2017-05-14T10:02:04.169Z,1011.51
2017-05-14T10:03:05.621Z,1011.50
2017-05-14T10:04:07.059Z,1011.55
2017-05-14T10:05:08.506Z,1011.56
2017-05-14T10:06:09.948Z,1011.56
2017-05-14T10:07:11.388Z,1011.52
2017-05-14T10:08:12.830Z,1011.60
2017-05-14T10:09:14.267Z,1011.55
2017-05-14T10:10:15.700Z,1011.57
2017-05-14T10:11:17.139Z,1011.61
2017-05-14T10:12:18.581Z,1011.60
2017-05-14T10:13:20.015Z,1011.60
2017-05-14T10:14:21.459Z,1011.63
2017-05-14T10:15:22.905Z,1011.57
2017-05-14T10:16:24.344Z,1011.61
2017-05-14T10:17:25.787Z,1011.57
2017-05-14T10:18:27.228Z,1011.59
2017-05-14T10:19:28.666Z,1011.57
2017-05-14T10:20:30.104Z,1011.56
2017-05-14T10:21:31.546Z,1011.56
2017-05-14T10:22:32.983Z,1011.56
2017-05-14T10:23:34.424Z,1011.55
2017-05-14T10:24:35.867Z,1011.53
2017-05-14T10:25:37.309Z,1011.54
2017-05-14T10:26:38.750Z,1011.47
2017-05-14T10:27:40.190Z,1011.47
2017-05-14T10:28:41.621Z,1011.50
2017-05-14T10:29:43.063Z,1011.45
2017-05-14T10:30:44.506Z,1011.43
2017-05-14T10:31:45.945Z,1011.46
2017-05-14T10:32:47.384Z,1011.44
2017-05-14T10:33:48.829Z,1011.51
2017-05-14T10:34:50.308Z,1011.42
2017-05-14T10:35:51.705Z,1011.47
2017-05-14T10:36:53.149Z,1011.49
2017-05-14T10:37:54.583Z,1011.47
2017-05-14T10:38:56.027Z,1011.45
2017-05-14T10:39:57.463Z,1011.46
2017-05-14T10:40:58.906Z,1011.41
2017-05-14T10:42:00.349Z,1011.50
2017-05-14T10:43:01.784Z,1011.45
2017-05-14T10:44:03.233Z,1011.43
2017-05-14T10:45:04.677Z,1011.45
2017-05-14T10:46:06.110Z,1011.43
2017-05-14T10:47:07.548Z,1011.43
2017-05-14T10:48:08.986Z,1011.35
2017-05-14T10:49:10.432Z,1011.38
2017-05-14T10:50:12.781Z,1011.36
2017-05-14T10:51:14.222Z,1011.39
2017-05-14T10:52:15.661Z,1011.40
2017-05-14T10:53:17.104Z,1011.39
2017-05-14T10:54:18.601Z,1011.43
2017-05-14T10:55:20.051Z,1011.36
2017-05-14T10:56:21.490Z,1011.42
2017-05-14T10:57:22.923Z,1011.42
2017-05-14T10:58:24.369Z,1011.40
2017-05-14T10:59:25.804Z,1011.44
2017-05-14T11:00:27.283Z,1011.54
2017-05-14T11:01:28.749Z,1011.51
2017-05-14T11:02:30.196Z,1011.46
2017-05-14T11:03:31.651Z,1011.41
2017-05-14T11:04:33.093Z,1011.41
2017-05-14T11:05:34.536Z,1011.42
2017-05-14T11:06:35.972Z,1011.41
2017-05-14T11:07:37.416Z,1011.42
2017-05-14T11:08:38.862Z,1011.51
2017-05-14T11:09:40.297Z,1011.52
2017-05-14T11:10:41.735Z,1011.44
2017-05-14T11:11:43.174Z,1011.50
2017-05-14T11:12:44.612Z,1011.51
2017-05-14T11:13:46.050Z,1011.54
2017-05-14T11:14:47.489Z,1011.54
2017-05-14T11:15:48.940Z,1011.56
2017-05-14T11:16:50.377Z,1011.54
2017-05-14T11:17:51.817Z,1011.60
2017-05-14T11:18:53.283Z,1011.63
2017-05-14T11:19:54.724Z,1011.65
2017-05-14T11:20:56.166Z,1011.64
2017-05-14T11:21:57.613Z,1011.54
2017-05-14T11:22:59.054Z,1011.60
2017-05-14T11:24:00.492Z,1011.62
2017-05-14T11:25:01.937Z,1011.59
2017-05-14T11:26:03.373Z,1011.62
2017-05-14T11:27:04.812Z,1011.64
2017-05-14T11:28:06.259Z,1011.66
2017-05-14T11:29:07.700Z,1011.64
2017-05-14T11:30:09.149Z,1011.63
2017-05-14T11:31:10.584Z,1011.60
2017-05-14T11:32:12.019Z,1011.57
2017-05-14T11:33:13.467Z,1011.55
2017-05-14T11:34:14.931Z,1011.56
2017-05-14T11:35:16.371Z,1011.55
2017-05-14T11:36:17.810Z,1011.54
2017-05-14T11:37:19.254Z,1011.61
2017-05-14T11:38:20.696Z,1011.52
2017-05-14T11:39:22.137Z,1011.54
2017-05-14T11:40:23.586Z,1011.54
2017-05-14T11:41:25.038Z,1011.51
2017-05-14T11:42:27.381Z,1011.54
2017-05-14T11:43:28.907Z,1011.59
2017-05-14T11:44:30.350Z,1011.57
2017-05-14T11:45:31.788Z,1011.65
2017-05-14T11:46:33.239Z,1011.56
2017-05-14T11:47:34.674Z,1011.49
2017-05-14T11:48:36.112Z,1011.58
2017-05-14T11:49:37.559Z,1011.56
2017-05-14T11:50:38.989Z,1011.53
2017-05-14T11:51:40.426Z,1011.53
2017-05-14T11:52:41.868Z,1011.57
2017-05-14T11:53:43.309Z,1011.52
2017-05-14T11:54:44.759Z,1011.59
2017-05-14T11:55:46.198Z,1011.61
2017-05-14T11:56:47.635Z,1011.67
2017-05-14T11:57:49.118Z,1011.68
2017-05-14T11:58:50.560Z,1011.66
2017-05-14T11:59:51.996Z,1011.66
2017-05-14T12:00:53.443Z,1011.55
2017-05-14T12:01:54.880Z,1011.56
2017-05-14T12:02:56.319Z,1011.60
2017-05-14T12:03:57.757Z,1011.58
2017-05-14T12:04:59.244Z,1011.62
2017-05-14T12:06:00.686Z,1011.55
2017-05-14T12:07:02.128Z,1011.56
2017-05-14T12:08:03.575Z,1011.58
2017-05-14T12:09:05.105Z,1011.58
2017-05-14T12:10:06.542Z,1011.58
2017-05-14T12:11:07.977Z,1011.50
2017-05-14T12:12:09.411Z,1011.47
2017-05-14T12:13:10.862Z,1011.50
2017-05-14T12:14:12.288Z,1011.53
2017-05-14T12:15:13.723Z,1011.51
2017-05-14T12:16:16.011Z,1011.52
2017-05-14T12:17:17.453Z,1011.49
2017-05-14T12:18:18.895Z,1011.52
2017-05-14T12:19:20.331Z,1011.55
2017-05-14T12:20:21.774Z,1011.59
2017-05-14T12:21:23.273Z,1011.53
2017-05-14T12:22:24.717Z,1011.55
2017-05-14T12:23:26.169Z,1011.54